createdAt,value
2023-02-03T00:00:40.544Z,2.80
2023-02-03T00:03:08.186Z,2.28
2023-02-03T00:05:36.787Z,3.30
2023-02-03T00:08:05.541Z,2.65
2023-02-03T00:10:33.934Z,3.85
2023-02-03T00:13:01.059Z,2.80
2023-02-03T00:15:29.385Z,2.38
2023-02-03T00:17:56.275Z,2.33
2023-02-03T00:20:23.576Z,2.58
2023-02-03T00:22:50.837Z,2.53
2023-02-03T00:25:18.237Z,2.78
2023-02-03T00:27:45.532Z,2.35
2023-02-03T00:30:13.477Z,3.13
2023-02-03T00:32:42.002Z,2.25
2023-02-03T00:35:08.990Z,3.58
2023-02-03T00:37:36.886Z,2.75
2023-02-03T00:40:04.705Z,2.80
2023-02-03T00:42:31.931Z,2.65
2023-02-03T00:44:58.773Z,3.10
2023-02-03T00:47:26.027Z,2.63
2023-02-03T00:49:54.521Z,2.17
2023-02-03T00:52:21.462Z,2.97
2023-02-03T00:54:48.557Z,4.03
2023-02-03T00:57:16.965Z,5.82
2023-02-03T00:59:44.183Z,4.68
2023-02-03T01:02:11.247Z,9.10
2023-02-03T01:04:40.712Z,4.80
2023-02-03T01:07:09.145Z,3.47
2023-02-03T01:09:37.653Z,9.70
2023-02-03T01:12:05.679Z,6.90
2023-02-03T01:14:34.305Z,9.60
2023-02-03T01:17:01.591Z,10.40
2023-02-03T01:19:28.775Z,10.13
2023-02-03T01:21:56.225Z,13.63
2023-02-03T01:24:24.670Z,14.57
2023-02-03T01:26:51.826Z,14.13
2023-02-03T01:29:18.823Z,8.30
2023-02-03T01:31:46.083Z,8.23
2023-02-03T01:34:14.784Z,7.68
2023-02-03T01:36:43.618Z,8.07
2023-02-03T01:39:11.147Z,10.10
2023-02-03T01:41:41.224Z,14.65
2023-02-03T01:44:41.110Z,13.57
2023-02-03T01:47:17.503Z,11.20
2023-02-03T01:49:52.032Z,5.80
2023-02-03T01:52:19.438Z,9.95
2023-02-03T01:54:50.362Z,7.03
2023-02-03T01:57:24.542Z,10.40
2023-02-03T01:59:56.339Z,8.63
2023-02-03T02:02:24.026Z,5.22
2023-02-03T02:05:01.984Z,6.40
2023-02-03T02:07:29.787Z,7.35
2023-02-03T02:09:57.658Z,6.72
2023-02-03T02:12:26.465Z,8.68
2023-02-03T02:14:53.668Z,9.52
2023-02-03T02:17:56.617Z,6.95
2023-02-03T02:20:49.118Z,8.43
2023-02-03T02:24:04.181Z,6.57
2023-02-03T02:26:52.092Z,13.88
2023-02-03T02:30:06.789Z,8.90
2023-02-03T02:32:53.696Z,8.32
2023-02-03T02:35:39.952Z,7.70
2023-02-03T02:38:25.330Z,8.10
2023-02-03T02:41:05.500Z,5.68
2023-02-03T02:43:41.175Z,7.85
2023-02-03T02:46:14.628Z,6.07
2023-02-03T02:48:49.495Z,10.25
2023-02-03T02:51:17.941Z,7.75
2023-02-03T02:53:50.375Z,12.25
2023-02-03T02:56:19.427Z,5.85
2023-02-03T02:58:51.724Z,6.53
2023-02-03T03:01:18.966Z,6.05
2023-02-03T03:06:48.081Z,6.72
2023-02-03T03:09:20.573Z,6.95
2023-02-03T03:11:53.097Z,5.80
2023-02-03T03:14:25.259Z,6.10
2023-02-03T03:19:31.995Z,11.55
2023-02-03T03:22:04.188Z,8.77
2023-02-03T03:24:37.710Z,5.10
2023-02-03T03:27:12.309Z,7.63
2023-02-03T03:29:46.442Z,11.43
2023-02-03T03:32:14.116Z,5.40
2023-02-03T03:34:43.605Z,7.70
2023-02-03T03:37:19.374Z,7.38
2023-02-03T03:39:54.299Z,4.88
2023-02-03T03:42:31.779Z,6.55
2023-02-03T03:45:07.530Z,9.20
2023-02-03T03:47:44.396Z,5.38
2023-02-03T03:50:21.650Z,11.18
2023-02-03T03:52:54.347Z,8.00
2023-02-03T03:55:22.146Z,5.18
2023-02-03T03:57:59.098Z,6.22
2023-02-03T04:00:32.215Z,4.25
2023-02-03T04:03:07.856Z,7.35
2023-02-03T04:05:39.101Z,8.52
2023-02-03T04:08:06.940Z,5.32
2023-02-03T04:10:36.986Z,7.13
2023-02-03T04:13:05.037Z,5.72
2023-02-03T04:15:32.646Z,11.35
2023-02-03T04:17:59.844Z,10.75
2023-02-03T04:20:27.401Z,7.65
2023-02-03T04:22:55.885Z,10.88
2023-02-03T04:25:23.519Z,9.27
2023-02-03T04:27:50.428Z,7.68
2023-02-03T04:30:18.040Z,10.00
2023-02-03T04:32:45.685Z,6.15
2023-02-03T04:35:13.511Z,9.50
2023-02-03T04:37:41.118Z,9.15
2023-02-03T04:40:12.025Z,11.77
2023-02-03T04:42:39.098Z,8.50
2023-02-03T04:45:08.921Z,13.38
2023-02-03T04:47:36.820Z,7.72
2023-02-03T04:50:04.112Z,10.80
2023-02-03T04:52:31.523Z,7.70
2023-02-03T04:54:58.635Z,8.35
2023-02-03T04:57:26.996Z,10.43
2023-02-03T04:59:53.773Z,4.68
2023-02-03T05:02:21.329Z,4.10
2023-02-03T05:04:48.179Z,5.30
2023-02-03T05:07:15.072Z,5.32
2023-02-03T05:09:42.059Z,9.02
2023-02-03T05:12:08.889Z,6.85
2023-02-03T05:14:37.442Z,5.38
2023-02-03T05:17:04.524Z,7.25
2023-02-03T05:19:31.445Z,7.15
2023-02-03T05:21:58.520Z,5.57
2023-02-03T05:24:25.311Z,7.40
2023-02-03T05:26:52.097Z,6.65
2023-02-03T05:29:19.209Z,4.90
2023-02-03T05:31:47.614Z,5.25
2023-02-03T05:34:14.666Z,6.88
2023-02-03T05:36:41.585Z,5.43
2023-02-03T05:39:09.257Z,8.30
2023-02-03T05:41:36.583Z,5.13
2023-02-03T05:44:04.274Z,3.88
2023-02-03T05:46:31.058Z,5.65
2023-02-03T05:48:59.494Z,8.13
2023-02-03T05:51:26.468Z,3.70
2023-02-03T05:53:53.269Z,4.57
2023-02-03T05:56:20.268Z,4.75
2023-02-03T05:58:47.089Z,3.70
2023-02-03T06:01:13.848Z,2.47
2023-02-03T06:03:45.821Z,5.43
2023-02-03T06:06:14.695Z,3.25
2023-02-03T06:08:41.608Z,2.95
2023-02-03T06:11:09.320Z,4.22
2023-02-03T06:13:36.399Z,3.92
2023-02-03T06:16:04.974Z,6.68
2023-02-03T06:18:32.094Z,5.38
2023-02-03T06:20:58.908Z,4.57
2023-02-03T06:23:27.269Z,4.65
2023-02-03T06:25:54.099Z,4.80
2023-02-03T06:28:21.143Z,7.78
2023-02-03T06:30:50.642Z,8.05
2023-02-03T06:33:17.640Z,10.07
2023-02-03T06:35:44.749Z,9.40
2023-02-03T06:38:11.905Z,9.65
2023-02-03T06:40:40.231Z,7.50
2023-02-03T06:43:07.452Z,9.18
2023-02-03T06:45:34.301Z,8.85
2023-02-03T06:48:01.266Z,8.45
2023-02-03T06:50:28.725Z,10.30
2023-02-03T06:52:55.696Z,10.82
2023-02-03T06:55:22.673Z,8.73
2023-02-03T06:57:51.180Z,9.80
2023-02-03T07:00:19.705Z,9.90
2023-02-03T07:02:53.059Z,13.80
2023-02-03T07:05:20.089Z,5.15
2023-02-03T07:07:46.996Z,11.65
2023-02-03T07:10:14.100Z,8.68
2023-02-03T07:12:41.079Z,11.30
2023-02-03T07:15:10.948Z,7.20
2023-02-03T07:17:38.038Z,7.00
2023-02-03T07:20:05.950Z,7.07
2023-02-03T07:22:32.847Z,13.63
2023-02-03T07:25:00.269Z,7.78
2023-02-03T07:27:27.032Z,7.32
2023-02-03T07:29:53.956Z,5.55
2023-02-03T07:32:22.395Z,6.82
2023-02-03T07:34:49.490Z,6.30
2023-02-03T07:37:16.419Z,5.90
2023-02-03T07:39:43.509Z,4.93
2023-02-03T07:42:10.427Z,4.53
2023-02-03T07:44:43.931Z,7.25
2023-02-03T07:50:03.787Z,10.05
2023-02-03T07:52:31.924Z,6.13
2023-02-03T07:54:58.964Z,7.18
2023-02-03T07:57:26.258Z,8.13
2023-02-03T07:59:53.151Z,5.70
2023-02-03T08:02:20.132Z,4.70
2023-02-03T08:04:47.462Z,7.00
2023-02-03T08:07:15.859Z,5.05
2023-02-03T08:09:42.838Z,6.32
2023-02-03T08:12:09.869Z,5.28
2023-02-03T08:14:38.620Z,5.70
2023-02-03T08:17:05.526Z,5.20
2023-02-03T08:19:32.602Z,12.18
2023-02-03T08:21:59.816Z,9.55
2023-02-03T08:24:28.123Z,14.35
2023-02-03T08:26:54.900Z,11.43
2023-02-03T08:29:22.189Z,12.63
2023-02-03T08:31:53.517Z,10.25
2023-02-03T08:34:20.482Z,16.90
2023-02-03T08:36:47.505Z,14.48
2023-02-03T08:39:14.570Z,13.85
2023-02-03T08:41:42.757Z,11.73
2023-02-03T08:44:09.811Z,17.55
2023-02-03T08:46:36.884Z,18.27
2023-02-03T08:49:03.708Z,14.25
2023-02-03T08:51:30.875Z,14.65
2023-02-03T08:53:57.801Z,15.18
2023-02-03T08:56:25.034Z,18.40
2023-02-03T08:58:55.761Z,21.20
2023-02-03T09:01:23.140Z,19.35
2023-02-03T09:03:50.282Z,16.70
2023-02-03T09:06:17.838Z,19.27
2023-02-03T09:08:45.685Z,18.33
2023-02-03T09:11:15.292Z,18.05
2023-02-03T09:13:43.072Z,19.00
2023-02-03T09:16:12.924Z,14.85
2023-02-03T09:18:40.003Z,24.35
2023-02-03T09:21:10.085Z,17.13
2023-02-03T09:23:40.693Z,19.80
2023-02-03T09:26:11.159Z,19.98
2023-02-03T09:28:38.739Z,13.80
2023-02-03T09:31:08.367Z,16.70
2023-02-03T09:33:37.589Z,17.10
2023-02-03T09:36:06.670Z,21.80
2023-02-03T09:38:35.369Z,16.45
2023-02-03T09:41:22.514Z,20.25
2023-02-03T09:43:58.082Z,19.80
2023-02-03T09:46:30.611Z,19.85
2023-02-03T09:51:47.353Z,19.00
2023-02-03T09:54:21.689Z,18.90
2023-02-03T09:56:51.917Z,23.85
2023-02-03T09:59:19.323Z,24.10
2023-02-03T10:01:57.432Z,24.88
2023-02-03T10:04:36.765Z,16.15
2023-02-03T10:07:16.607Z,17.95
2023-02-03T10:10:03.789Z,25.60
2023-02-03T10:12:54.204Z,21.55
2023-02-03T10:15:49.998Z,14.70
2023-02-03T10:18:23.804Z,17.15
2023-02-03T10:20:56.760Z,19.38
2023-02-03T10:23:31.572Z,15.50
2023-02-03T10:26:02.946Z,16.00
2023-02-03T10:28:35.766Z,12.43
2023-02-03T10:31:16.999Z,21.25
2023-02-03T10:33:44.488Z,18.17
2023-02-03T10:36:20.493Z,19.60
2023-02-03T10:38:59.412Z,23.75
2023-02-03T10:41:31.033Z,20.45
2023-02-03T10:44:03.700Z,24.38
2023-02-03T10:46:35.212Z,18.33
2023-02-03T10:49:02.701Z,23.77
2023-02-03T10:51:38.659Z,14.38
2023-02-03T10:54:30.078Z,22.48
2023-02-03T10:57:04.404Z,17.63
2023-02-03T10:59:34.910Z,20.55
2023-02-03T11:02:09.379Z,17.20
2023-02-03T11:04:37.416Z,12.82
2023-02-03T11:07:22.793Z,17.42
2023-02-03T11:09:50.242Z,15.27
2023-02-03T11:12:19.604Z,11.48
2023-02-03T11:14:49.175Z,15.75
2023-02-03T11:17:19.473Z,21.17
2023-02-03T11:19:48.650Z,12.50
2023-02-03T11:22:30.185Z,16.42
2023-02-03T11:24:58.774Z,17.97
2023-02-03T11:27:30.139Z,16.15
2023-02-03T11:30:16.913Z,15.07
2023-02-03T11:32:47.466Z,13.85
2023-02-03T11:35:20.097Z,16.88
2023-02-03T11:37:52.374Z,12.77
2023-02-03T11:40:27.550Z,18.30
2023-02-03T11:43:05.809Z,13.63
2023-02-03T11:45:40.332Z,15.25
2023-02-03T11:48:22.490Z,19.90
2023-02-03T11:51:03.040Z,15.63
2023-02-03T11:53:57.158Z,13.18
2023-02-03T11:56:45.708Z,16.05
2023-02-03T11:59:33.071Z,14.70
2023-02-03T12:02:38.832Z,11.55
2023-02-03T12:05:36.797Z,13.45
2023-02-03T12:08:21.781Z,13.02
2023-02-03T12:11:05.346Z,20.20
2023-02-03T12:13:55.999Z,16.70
2023-02-03T12:16:58.275Z,16.42
2023-02-03T12:19:42.094Z,13.38
2023-02-03T12:22:23.901Z,16.13
2023-02-03T12:25:03.684Z,15.95
2023-02-03T12:27:46.329Z,15.80
2023-02-03T12:30:22.521Z,17.75
2023-02-03T12:32:56.706Z,15.65
2023-02-03T12:35:34.237Z,15.52
2023-02-03T12:38:08.417Z,13.07
2023-02-03T12:40:42.511Z,12.50
2023-02-03T12:43:25.969Z,15.63
2023-02-03T12:45:58.070Z,18.60
2023-02-03T12:48:31.674Z,13.45
2023-02-03T12:51:04.745Z,13.25
2023-02-03T12:53:38.163Z,17.92
2023-02-03T12:56:11.592Z,14.10
2023-02-03T12:58:47.111Z,13.10
2023-02-03T13:04:23.998Z,17.48
2023-02-03T13:07:01.956Z,14.40
2023-02-03T13:09:38.635Z,15.20
2023-02-03T13:12:12.031Z,11.95
2023-02-03T13:14:47.413Z,17.85
2023-02-03T13:17:20.437Z,12.77
2023-02-03T13:19:52.139Z,14.70
2023-02-03T13:22:21.555Z,13.50
2023-02-03T13:24:55.461Z,17.92
2023-02-03T13:27:44.791Z,15.38
2023-02-03T13:30:58.854Z,15.98
2023-02-03T13:34:20.060Z,9.90
2023-02-03T13:37:31.778Z,14.15
2023-02-03T13:40:19.407Z,14.35
2023-02-03T13:45:52.041Z,15.60
2023-02-03T13:48:22.998Z,15.60
2023-02-03T13:51:02.079Z,22.38
2023-02-03T13:53:36.264Z,15.38
2023-02-03T13:56:06.877Z,12.40
2023-02-03T13:58:37.208Z,18.75
2023-02-03T14:01:30.809Z,12.02
2023-02-03T14:03:58.599Z,12.63
2023-02-03T14:07:03.743Z,17.45
2023-02-03T14:09:47.596Z,13.70
2023-02-03T14:12:35.741Z,17.65
2023-02-03T14:15:21.649Z,16.83
2023-02-03T14:18:04.266Z,15.52
2023-02-03T14:20:56.670Z,9.10
2023-02-03T14:23:34.499Z,14.85
2023-02-03T14:26:02.515Z,17.40
2023-02-03T14:28:40.219Z,17.73
2023-02-03T14:31:18.713Z,20.77
2023-02-03T14:34:09.905Z,16.75
2023-02-03T14:36:52.691Z,12.77
2023-02-03T14:40:07.503Z,19.05
2023-02-03T14:43:11.082Z,18.85
2023-02-03T14:46:15.462Z,22.05
2023-02-03T14:49:18.254Z,17.42
2023-02-03T14:52:17.650Z,15.25
2023-02-03T14:55:14.207Z,15.20
2023-02-03T14:57:48.240Z,19.27
2023-02-03T15:00:33.641Z,15.75
2023-02-03T15:03:31.335Z,17.30
2023-02-03T15:06:03.805Z,19.48
2023-02-03T15:08:43.671Z,18.35
2023-02-03T15:11:25.688Z,15.98
2023-02-03T15:13:53.903Z,13.15
2023-02-03T15:16:24.310Z,14.50
2023-02-03T15:18:58.503Z,19.45
2023-02-03T15:21:27.138Z,12.85
2023-02-03T15:23:54.601Z,20.17
2023-02-03T15:26:24.406Z,16.55
2023-02-03T15:28:56.459Z,13.27
2023-02-03T15:34:29.586Z,18.60
2023-02-03T15:37:02.837Z,17.13
2023-02-03T15:39:43.908Z,22.75
2023-02-03T15:42:19.737Z,14.40
2023-02-03T15:44:56.276Z,16.73
2023-02-03T15:47:31.630Z,21.08
2023-02-03T15:50:08.894Z,17.90
2023-02-03T15:52:42.702Z,19.98
2023-02-03T15:55:22.944Z,15.57
2023-02-03T15:57:50.833Z,15.85
2023-02-03T16:00:38.525Z,13.30
2023-02-03T16:03:17.369Z,17.42
2023-02-03T16:05:44.388Z,10.15
2023-02-03T16:08:39.059Z,20.88
2023-02-03T16:11:26.458Z,23.80
2023-02-03T16:13:54.268Z,19.75
2023-02-03T16:16:24.976Z,11.88
2023-02-03T16:18:55.827Z,18.02
2023-02-03T16:21:30.577Z,17.58
2023-02-03T16:23:59.579Z,14.00
2023-02-03T16:26:28.473Z,15.07
2023-02-03T16:29:19.790Z,16.75
2023-02-03T16:31:47.045Z,15.70
2023-02-03T16:34:16.882Z,22.02
2023-02-03T16:36:44.418Z,21.95
2023-02-03T16:39:13.116Z,19.17
2023-02-03T16:41:40.202Z,29.02
2023-02-03T16:44:11.689Z,17.73
2023-02-03T16:46:38.547Z,17.30
2023-02-03T16:49:05.441Z,14.15
2023-02-03T16:51:39.640Z,16.75
2023-02-03T16:54:07.458Z,14.32
2023-02-03T16:56:36.879Z,15.95
2023-02-03T16:59:05.000Z,15.38
2023-02-03T17:01:32.447Z,20.20
2023-02-03T17:03:59.893Z,16.00
2023-02-03T17:06:27.280Z,12.13
2023-02-03T17:08:55.867Z,18.98
2023-02-03T17:11:24.396Z,8.00
2023-02-03T17:13:52.565Z,9.38
2023-02-03T17:16:22.102Z,5.55
2023-02-03T17:18:49.785Z,8.35
2023-02-03T17:21:21.395Z,13.73
2023-02-03T17:23:49.058Z,10.77
2023-02-03T17:26:15.961Z,17.23
2023-02-03T17:28:43.616Z,12.18
2023-02-03T17:31:16.597Z,11.82
2023-02-03T17:33:44.393Z,16.20
2023-02-03T17:36:16.377Z,16.23
2023-02-03T17:55:22.773Z,14.30
2023-02-03T17:57:50.019Z,11.32
2023-02-03T18:00:17.755Z,7.22
2023-02-03T18:02:49.795Z,13.07
2023-02-03T18:05:17.582Z,8.32
2023-02-03T18:07:44.800Z,10.98
2023-02-03T18:10:12.309Z,12.45
2023-02-03T18:12:39.314Z,8.48
2023-02-03T18:15:07.192Z,11.10
2023-02-03T18:17:34.555Z,17.38
2023-02-03T18:22:53.726Z,10.27
2023-02-03T18:25:20.718Z,7.50
2023-02-03T18:27:50.352Z,11.80
2023-02-03T18:30:17.854Z,9.25
2023-02-03T18:32:44.708Z,10.70
2023-02-03T18:35:13.336Z,9.20
2023-02-03T18:37:40.114Z,12.57
2023-02-03T18:40:07.599Z,7.47
2023-02-03T18:42:34.879Z,12.82
2023-02-03T18:45:01.865Z,13.07
2023-02-03T18:47:28.932Z,9.48
2023-02-03T18:49:55.785Z,14.98
2023-02-03T18:52:25.744Z,17.48
2023-02-03T18:54:52.643Z,12.02
2023-02-03T18:57:19.467Z,10.27
2023-02-03T18:59:46.601Z,9.60
2023-02-03T19:02:13.565Z,11.18
2023-02-03T19:04:40.890Z,9.32
2023-02-03T19:07:08.225Z,8.98
2023-02-03T19:09:38.151Z,18.98
2023-02-03T19:12:06.271Z,17.85
2023-02-03T19:14:34.758Z,18.52
2023-02-03T19:17:02.464Z,15.35
2023-02-03T19:19:29.421Z,13.70
2023-02-03T19:21:56.348Z,13.73
2023-02-03T19:24:24.192Z,14.73
2023-02-03T19:26:53.968Z,10.50
2023-02-03T19:29:20.950Z,9.85
2023-02-03T19:31:48.572Z,14.75
2023-02-03T19:34:16.578Z,9.73
2023-02-03T19:36:44.273Z,6.97
2023-02-03T19:39:11.247Z,5.82
2023-02-03T19:41:38.145Z,8.82
2023-02-03T19:44:09.139Z,4.15
2023-02-03T19:46:46.499Z,7.38
2023-02-03T19:49:13.581Z,3.75
2023-02-03T19:51:41.043Z,4.13
2023-02-03T19:54:11.551Z,2.42
2023-02-03T19:56:38.542Z,3.20
2023-02-03T19:59:08.116Z,2.78
2023-02-03T20:01:35.700Z,2.97
2023-02-03T20:04:02.637Z,3.72
2023-02-03T20:06:29.660Z,2.08
2023-02-03T20:08:56.515Z,3.10
2023-02-03T20:11:23.475Z,4.85
2023-02-03T20:13:50.901Z,3.10
2023-02-03T20:16:19.831Z,5.47
2023-02-03T20:18:46.909Z,2.95
2023-02-03T20:21:13.987Z,2.70
2023-02-03T20:23:40.909Z,1.92
2023-02-03T20:26:09.058Z,4.90
2023-02-03T20:28:36.182Z,5.22
2023-02-03T20:31:03.625Z,2.90
2023-02-03T20:33:32.178Z,1.75
2023-02-03T20:35:59.396Z,3.22
2023-02-03T20:38:26.245Z,1.77
2023-02-03T20:40:53.375Z,2.17
2023-02-03T20:43:23.220Z,3.65
2023-02-03T20:45:51.388Z,4.75
2023-02-03T20:48:20.978Z,4.03
2023-02-03T20:50:49.529Z,3.50
2023-02-03T20:53:19.860Z,5.60
2023-02-03T20:55:48.118Z,2.40
2023-02-03T20:58:19.049Z,1.83
2023-02-03T21:00:47.787Z,2.90
2023-02-03T21:03:16.926Z,4.63
2023-02-03T21:05:44.345Z,3.42
2023-02-03T21:08:14.197Z,3.63
2023-02-03T21:10:41.469Z,1.65
2023-02-03T21:13:18.913Z,1.10
2023-02-03T21:15:46.704Z,2.35
2023-02-03T21:18:33.050Z,0.90
2023-02-03T21:21:01.300Z,3.70
2023-02-03T21:23:38.951Z,0.90
2023-02-03T21:26:21.533Z,2.55
2023-02-03T21:28:51.813Z,2.63
2023-02-03T21:31:24.574Z,3.70
2023-02-03T21:33:52.974Z,1.75
2023-02-03T21:36:23.344Z,2.35
2023-02-03T21:38:53.221Z,1.88
2023-02-03T21:41:23.059Z,1.80
2023-02-03T21:43:52.490Z,1.02
2023-02-03T21:46:26.260Z,1.33
2023-02-03T21:48:55.636Z,1.02
2023-02-03T21:51:25.473Z,3.53
2023-02-03T21:53:57.415Z,4.20
2023-02-03T21:56:27.259Z,2.03
2023-02-03T21:58:56.839Z,1.63
2023-02-03T22:01:25.578Z,2.70
2023-02-03T22:03:54.124Z,2.60
2023-02-03T22:06:25.399Z,1.52
2023-02-03T22:08:56.283Z,2.10
2023-02-03T22:11:27.912Z,2.22
2023-02-03T22:13:55.245Z,3.03
2023-02-03T22:16:22.447Z,0.95
2023-02-03T22:18:50.296Z,5.90
2023-02-03T22:21:17.900Z,2.45
2023-02-03T22:23:45.321Z,0.90
2023-02-03T22:26:15.569Z,1.30
2023-02-03T22:28:43.279Z,3.42
2023-02-03T22:31:11.848Z,1.25
2023-02-03T22:33:40.749Z,1.50
2023-02-03T22:36:09.724Z,2.92
2023-02-03T22:38:38.235Z,1.83
2023-02-03T22:41:05.511Z,1.38
2023-02-03T22:43:34.788Z,1.90
2023-02-03T22:46:02.154Z,1.52
2023-02-03T22:48:28.990Z,0.80
2023-02-03T22:50:56.455Z,1.90
2023-02-03T22:53:23.587Z,1.88
2023-02-03T22:55:50.781Z,1.33
2023-02-03T22:58:17.803Z,3.13
2023-02-03T23:00:46.146Z,1.33
2023-02-03T23:03:13.147Z,2.05
2023-02-03T23:05:41.637Z,4.18
2023-02-03T23:08:08.869Z,1.88
2023-02-03T23:10:35.738Z,1.10
2023-02-03T23:13:02.688Z,1.20
2023-02-03T23:15:30.689Z,1.38
2023-02-03T23:17:59.180Z,2.53
2023-02-03T23:20:26.319Z,1.95
2023-02-03T23:25:45.384Z,2.13
2023-02-03T23:28:12.689Z,2.42
2023-02-03T23:30:39.741Z,2.22
2023-02-03T23:33:08.391Z,2.28
2023-02-03T23:35:35.767Z,2.38
2023-02-03T23:38:02.831Z,1.92
2023-02-03T23:40:30.083Z,1.08
2023-02-03T23:42:59.362Z,1.30
2023-02-03T23:45:26.425Z,1.80
2023-02-03T23:47:53.526Z,1.67
2023-02-03T23:50:22.001Z,1.77
2023-02-03T23:52:48.934Z,1.52
2023-02-03T23:55:20.029Z,2.40
2023-02-03T23:57:47.074Z,1.75
